Time;durP1;ratioP1;P1;durP2;ratioP2;P2;SDS_P1;SDS_P2;PMS_P1;PMS_P2;Temp;Humidity;BMP_temperature;BMP_pressure;BME280_temperature;BME280_humidity;BME280_pressure;Samples;Min_cycle;Max_cycle;Signal;HPM_P1;HPM_P2
2022/01/31 00:01:57;;;;;;;24.80;5.25;;;;;;;3.10;100.00;101257.44;10382264;28;20029;-77
2022/01/31 00:06:58;;;;;;;29.17;4.13;;;;;;;3.10;100.00;101230.25;10388351;28;20056;-76
2022/01/31 00:12:03;;;;;;;16.92;4.07;;;;;;;3.08;100.00;101205.13;10372593;28;20054;-76
2022/01/31 00:17:04;;;;;;;23.70;3.72;;;;;;;3.07;100.00;101200.72;10373169;28;20113;-75
2022/01/31 00:22:05;;;;;;;20.17;5.10;;;;;;;2.95;100.00;101156.91;10387967;28;20514;-75
2022/01/31 00:27:07;;;;;;;19.30;4.78;;;;;;;3.07;100.00;101151.78;10372590;28;20040;-75
2022/01/31 00:32:08;;;;;;;15.32;4.43;;;;;;;3.01;100.00;101132.47;10388148;28;20358;-76
2022/01/31 00:37:08;;;;;;;16.20;5.00;;;;;;;3.03;100.00;101100.47;10397124;28;20042;-76
2022/01/31 00:42:09;;;;;;;22.90;4.57;;;;;;;2.99;100.00;101076.59;10429669;28;20071;-76
2022/01/31 00:47:18;;;;;;;20.95;4.95;;;;;;;2.97;100.00;101056.91;10428243;28;20041;-76
2022/01/31 00:52:19;;;;;;;24.83;5.75;;;;;;;3.02;100.00;101022.66;10430264;28;20116;-76
2022/01/31 00:57:19;;;;;;;23.25;5.75;;;;;;;2.65;100.00;100930.59;10429367;28;20052;-76
2022/01/31 01:02:20;;;;;;;27.10;7.80;;;;;;;3.10;100.00;100979.97;10401948;28;20030;-75
2022/01/31 01:07:21;;;;;;;19.42;6.28;;;;;;;2.74;100.00;100883.19;10386996;28;20053;-74
2022/01/31 01:12:21;;;;;;;21.35;5.82;;;;;;;3.15;100.00;100928.53;10371278;28;20057;-73
2022/01/31 01:17:22;;;;;;;25.48;6.30;;;;;;;3.19;100.00;100908.03;10388041;28;20049;-74
2022/01/31 01:22:22;;;;;;;20.38;5.82;;;;;;;3.24;100.00;100883.75;10371200;28;20057;-75
2022/01/31 01:27:23;;;;;;;27.20;7.10;;;;;;;3.28;100.00;100876.88;10389578;28;20033;-73
2022/01/31 01:32:26;;;;;;;16.63;5.63;;;;;;;3.21;100.00;100848.81;10392253;28;20038;-73
2022/01/31 01:37:27;;;;;;;19.88;7.35;;;;;;;3.14;100.00;100818.03;10427062;28;20045;-74
2022/01/31 01:42:27;;;;;;;24.23;6.50;;;;;;;2.99;100.00;100783.69;10437039;28;20018;-72
2022/01/31 01:47:27;;;;;;;21.95;6.63;;;;;;;2.94;100.00;100788.09;10435847;28;20089;-73
2022/01/31 01:52:28;;;;;;;29.92;8.45;;;;;;;2.84;100.00;100758.56;10436735;28;20373;-73
2022/01/31 01:57:28;;;;;;;26.90;8.05;;;;;;;2.64;100.00;100734.06;10435932;28;20042;-73
2022/01/31 02:02:29;;;;;;;26.75;8.65;;;;;;;2.45;100.00;100694.94;10414455;28;20033;-72
2022/01/31 02:07:29;;;;;;;24.73;10.05;;;;;;;2.48;100.00;100699.97;10392866;28;20054;-73
2022/01/31 02:12:47;;;;;;;32.45;9.77;;;;;;;2.35;100.00;100656.44;10395041;28;20042;-72
2022/01/31 02:17:47;;;;;;;33.67;11.98;;;;;;;2.30;100.00;100645.38;10393610;28;20049;-73
2022/01/31 02:22:47;;;;;;;32.20;11.77;;;;;;;2.17;100.00;100629.84;10393854;28;20029;-73
2022/01/31 02:27:48;;;;;;;32.03;12.90;;;;;;;2.09;100.00;100603.75;10377158;28;20034;-73
2022/01/31 02:32:48;;;;;;;33.85;14.30;;;;;;;2.00;100.00;100583.22;10391975;28;20045;-74
2022/01/31 02:37:49;;;;;;;29.52;13.85;;;;;;;1.89;100.00;100570.28;10393647;28;20489;-73
2022/01/31 02:42:52;;;;;;;32.88;13.93;;;;;;;1.72;100.00;100543.50;10394035;28;20527;-72
2022/01/31 02:47:56;;;;;;;37.33;14.75;;;;;;;1.71;100.00;100528.25;10376222;28;20022;-72
2022/01/31 02:53:14;;;;;;;28.90;14.13;;;;;;;1.56;100.00;100501.28;10376762;28;20034;-73
2022/01/31 02:58:14;;;;;;;28.50;14.00;;;;;;;1.55;100.00;100487.91;10391002;28;20044;-72
2022/01/31 03:03:15;;;;;;;33.08;16.00;;;;;;;1.56;100.00;100467.88;10398815;28;20098;-73
2022/01/31 03:08:15;;;;;;;42.08;17.13;;;;;;;1.56;100.00;100454.31;10432745;28;20034;-73
2022/01/31 03:13:16;;;;;;;31.52;16.52;;;;;;;1.54;100.00;100426.56;10415991;28;20060;-73
2022/01/31 03:18:16;;;;;;;39.22;19.60;;;;;;;1.60;100.00;100421.13;10415924;28;20093;-73
2022/01/31 03:23:18;;;;;;;30.75;19.75;;;;;;;1.60;100.00;100393.19;10399135;28;20029;-73
2022/01/31 03:28:18;;;;;;;34.38;18.30;;;;;;;1.70;100.00;100382.75;10430033;28;20163;-74
2022/01/31 03:33:19;;;;;;;40.05;18.20;;;;;;;1.68;100.00;100368.56;10389081;28;20030;-74
2022/01/31 03:38:19;;;;;;;37.88;19.55;;;;;;;1.71;100.00;100357.25;10389325;28;20417;-73
2022/01/31 03:43:20;;;;;;;35.60;18.15;;;;;;;1.59;100.00;100318.22;10389449;28;20442;-73
2022/01/31 03:48:20;;;;;;;38.95;18.70;;;;;;;1.78;100.00;100322.00;10395547;28;20473;-73
2022/01/31 03:53:21;;;;;;;28.02;13.40;;;;;;;1.81;100.00;100306.13;10388972;28;20444;-72
2022/01/31 03:58:22;;;;;;;24.33;13.00;;;;;;;1.90;100.00;100284.19;10390815;28;20433;-73
2022/01/31 04:03:22;;;;;;;25.05;12.82;;;;;;;1.84;100.00;100264.16;10396443;28;20108;-74
2022/01/31 04:08:23;;;;;;;23.30;13.25;;;;;;;1.94;100.00;100271.84;10429797;28;20501;-73
2022/01/31 04:13:26;;;;;;;22.83;13.20;;;;;;;1.90;100.00;100249.75;10429869;28;20093;-74
2022/01/31 04:18:26;;;;;;;22.75;12.50;;;;;;;1.94;100.00;100239.28;10431581;28;20042;-74
2022/01/31 04:23:28;;;;;;;24.25;13.93;;;;;;;1.94;100.00;100225.69;10431117;28;20029;-74
2022/01/31 04:28:39;;;;;;;31.52;15.25;;;;;;;1.98;100.00;100232.38;10429111;28;20021;-74
2022/01/31 04:33:41;;;;;;;28.20;14.13;;;;;;;2.06;100.00;100228.59;10394106;28;20034;-74
2022/01/31 04:38:45;;;;;;;30.58;13.90;;;;;;;2.18;100.00;100216.84;10371634;28;20037;-73
2022/01/31 04:43:47;;;;;;;33.03;12.52;;;;;;;2.48;100.00;100194.56;10388340;28;20438;-73
2022/01/31 04:48:48;;;;;;;25.58;7.60;;;;;;;2.98;100.00;100221.00;10405455;28;20034;-74
2022/01/31 04:53:48;;;;;;;12.32;2.25;;;;;;;3.27;100.00;100203.19;10387998;28;20026;-74
2022/01/31 04:58:49;;;;;;;10.75;1.23;;;;;;;3.26;100.00;100187.91;10388454;28;20050;-74
2022/01/31 05:03:50;;;;;;;7.75;2.08;;;;;;;3.28;100.00;100172.19;10394423;28;20056;-74
2022/01/31 05:08:50;;;;;;;11.73;2.05;;;;;;;3.27;100.00;100169.72;10434674;28;20037;-74
2022/01/31 05:13:51;;;;;;;21.98;2.70;;;;;;;3.28;100.00;100158.59;10437438;28;20072;-74
2022/01/31 05:18:51;;;;;;;17.50;3.42;;;;;;;3.38;100.00;100155.38;10438789;28;20037;-74
2022/01/31 05:23:52;;;;;;;23.92;3.28;;;;;;;3.42;100.00;100146.53;10436792;28;20034;-74
2022/01/31 05:28:52;;;;;;;19.98;3.05;;;;;;;3.52;100.00;100139.75;10437018;28;20037;-73
2022/01/31 05:33:53;;;;;;;26.90;3.35;;;;;;;3.67;100.00;100144.81;10435798;28;20087;-73
2022/01/31 05:38:53;;;;;;;18.83;3.83;;;;;;;3.74;100.00;100151.84;10435846;28;20036;-73
2022/01/31 05:43:53;;;;;;;25.00;4.65;;;;;;;3.63;100.00;100098.16;10434949;28;20033;-75
2022/01/31 05:48:54;;;;;;;19.83;3.65;;;;;;;3.88;100.00;100130.72;10437950;28;20025;-76
2022/01/31 05:53:54;;;;;;;13.88;3.15;;;;;;;3.55;100.00;100065.78;10435592;28;20033;-76
2022/01/31 05:58:55;;;;;;;10.95;2.65;;;;;;;3.63;100.00;100089.97;10418792;28;20033;-76
2022/01/31 06:03:55;;;;;;;12.02;2.35;;;;;;;3.72;100.00;100104.97;10404846;28;20084;-76
2022/01/31 06:08:56;;;;;;;13.23;2.95;;;;;;;3.38;100.00;100060.97;10395386;28;20071;-76
2022/01/31 06:13:59;;;;;;;13.65;2.72;;;;;;;3.60;100.00;100095.91;10395621;28;20022;-75
2022/01/31 06:19:00;;;;;;;16.40;2.50;;;;;;;3.59;100.00;100113.28;10392695;28;20026;-76
2022/01/31 06:24:01;;;;;;;9.48;2.55;;;;;;;3.58;100.00;100103.47;10391755;28;20037;-74
2022/01/31 06:29:01;;;;;;;14.25;1.98;;;;;;;3.24;100.00;100045.84;10392036;28;20030;-73
2022/01/31 06:34:02;;;;;;;13.38;3.22;;;;;;;3.42;100.00;100081.22;10392236;28;20030;-76
2022/01/31 06:39:02;;;;;;;9.38;1.73;;;;;;;3.40;100.00;100083.34;10375467;28;20436;-77
2022/01/31 06:44:03;;;;;;;10.90;1.27;;;;;;;3.49;100.00;100099.34;10393029;28;20033;-75
2022/01/31 06:49:03;;;;;;;8.65;2.33;;;;;;;3.44;100.00;100089.16;10394010;28;20048;-76
2022/01/31 06:54:05;;;;;;;13.73;1.30;;;;;;;3.42;100.00;100086.66;10393299;28;20037;-76
2022/01/31 06:59:06;;;;;;;6.60;1.45;;;;;;;3.34;100.00;100083.41;10391496;28;20070;-75
2022/01/31 07:04:06;;;;;;;10.82;1.60;;;;;;;3.36;100.00;100079.41;10391587;28;20064;-75
2022/01/31 07:09:07;;;;;;;14.25;3.10;;;;;;;3.26;100.00;100060.06;10374346;28;20053;-75
2022/01/31 07:14:29;;;;;;;21.42;6.88;;;;;;;3.42;100.00;100080.41;10375828;28;20041;-75
2022/01/31 07:19:31;;;;;;;21.17;11.20;;;;;;;3.09;100.00;100015.47;10391107;28;20030;-75
2022/01/31 07:29:38;;;;;;;18.48;6.07;;;;;;;3.43;100.00;100060.28;10389826;28;20049;-75
2022/01/31 07:34:39;;;;;;;14.90;4.07;;;;;;;3.49;100.00;100063.97;10418015;28;20064;-76
2022/01/31 07:39:41;;;;;;;21.77;5.70;;;;;;;3.51;100.00;100059.97;10388023;28;20033;-75
2022/01/31 07:44:41;;;;;;;19.90;5.88;;;;;;;3.32;100.00;100018.34;10388822;28;20041;-75
2022/01/31 07:49:42;;;;;;;23.33;7.72;;;;;;;3.55;100.00;100063.91;10356925;28;20449;-74
2022/01/31 07:54:44;;;;;;;15.52;7.90;;;;;;;3.67;100.00;100063.16;10372659;28;20053;-75
2022/01/31 07:59:44;;;;;;;24.20;6.10;;;;;;;3.71;100.00;100073.34;10373275;28;20033;-75
2022/01/31 08:04:44;;;;;;;12.48;4.07;;;;;;;3.78;100.00;100085.00;10388998;28;20049;-75
2022/01/31 08:09:45;;;;;;;15.98;3.08;;;;;;;3.86;100.00;100083.00;10371316;28;20038;-75
2022/01/31 08:14:47;;;;;;;12.88;2.85;;;;;;;3.77;100.00;100061.53;10356164;28;20060;-74
2022/01/31 08:19:48;;;;;;;17.88;3.38;;;;;;;3.89;100.00;100079.84;10356313;28;20068;-75
2022/01/31 08:24:48;;;;;;;15.60;1.92;;;;;;;3.52;100.00;100015.38;10388359;28;20103;-74
2022/01/31 08:29:49;;;;;;;18.27;3.10;;;;;;;3.93;100.00;100092.75;10388869;28;20385;-74
2022/01/31 08:40:09;;;;;;;11.13;3.15;;;;;;;4.03;100.00;100084.00;10387762;28;20048;-75
2022/01/31 08:45:09;;;;;;;16.52;2.53;;;;;;;3.94;100.00;100066.34;10404656;28;20042;-74
2022/01/31 08:50:10;;;;;;;15.45;2.28;;;;;;;4.08;100.00;100095.06;10404321;28;20030;-74
2022/01/31 08:55:11;;;;;;;13.45;2.90;;;;;;;4.35;100.00;100132.84;10389014;28;20044;-73
2022/01/31 09:00:13;;;;;;;14.32;2.70;;;;;;;4.28;100.00;100121.19;10388957;28;20049;-74
2022/01/31 09:05:13;;;;;;;11.43;2.05;;;;;;;4.24;100.00;100121.66;10411089;28;20039;-75
2022/01/31 09:10:14;;;;;;;13.02;1.90;;;;;;;4.34;100.00;100115.66;10430382;28;20121;-74
2022/01/31 09:15:15;;;;;;;11.88;1.92;;;;;;;4.72;100.00;100154.53;10428278;28;20037;-75
2022/01/31 09:20:16;;;;;;;13.60;2.72;;;;;;;4.79;100.00;100160.69;10428290;28;20040;-74
2022/01/31 09:25:16;;;;;;;13.52;2.85;;;;;;;4.89;100.00;100174.59;10428846;28;20038;-74
2022/01/31 09:30:18;;;;;;;20.48;2.38;;;;;;;4.97;100.00;100185.16;10426561;28;20243;-74
2022/01/31 09:35:19;;;;;;;7.28;1.70;;;;;;;5.02;100.00;100198.94;10427336;28;20034;-74
2022/01/31 09:40:21;;;;;;;14.15;2.03;;;;;;;5.12;100.00;100202.97;10427003;28;20040;-74
2022/01/31 09:45:36;;;;;;;16.17;2.28;;;;;;;5.05;100.00;100208.56;10410489;28;20072;-75
2022/01/31 09:50:37;;;;;;;12.77;3.00;;;;;;;4.93;100.00;100207.69;10425983;28;20057;-75
2022/01/31 09:55:37;;;;;;;17.92;2.60;;;;;;;5.05;100.00;100236.66;10427694;28;20029;-75
2022/01/31 10:00:38;;;;;;;12.52;2.83;;;;;;;5.10;100.00;100243.31;10433799;28;20033;-75
2022/01/31 10:05:40;;;;;;;24.90;3.72;;;;;;;5.38;100.00;100246.22;10399237;28;20042;-75
2022/01/31 10:10:43;;;;;;;11.20;2.55;;;;;;;5.46;100.00;100264.97;10394996;28;20041;-75
2022/01/31 10:16:26;;;;;;;14.15;2.70;;;;;;;5.31;100.00;100250.94;10420057;28;20064;-76
2022/01/31 10:21:20;;;;;;;19.23;3.15;;;;;;;5.65;100.00;100275.81;10435243;28;20049;-76
2022/01/31 10:26:31;;;;;;;13.60;2.20;;;;;;;5.75;100.00;100294.34;10434130;28;20048;-75
2022/01/31 10:31:32;;;;;;;15.23;2.05;;;;;;;5.85;100.00;100292.69;10435065;28;20507;-76
2022/01/31 10:36:32;;;;;;;9.48;1.60;;;;;;;6.05;100.00;100286.03;10399527;28;20045;-75
2022/01/31 10:52:34;;;;;;;9.88;1.50;;;;;;;6.33;100.00;100315.38;10296297;28;20043;-75
2022/01/31 10:57:35;;;;;;;9.35;1.52;;;;;;;6.00;100.00;100237.56;10374186;28;20057;-75
2022/01/31 11:02:36;;;;;;;12.45;1.63;;;;;;;6.80;100.00;100322.63;10391661;28;20026;-75
2022/01/31 11:07:36;;;;;;;6.55;1.40;;;;;;;7.00;100.00;100333.97;10391678;28;20096;-76
2022/01/31 11:12:37;;;;;;;9.02;1.73;;;;;;;6.95;100.00;100342.09;10402318;28;20144;-75
2022/01/31 11:17:37;;;;;;;17.00;2.78;;;;;;;7.11;100.00;100343.22;10414851;28;20034;-76
2022/01/31 11:22:41;;;;;;;16.08;2.50;;;;;;;7.19;100.00;100353.78;10402348;28;20046;-74
2022/01/31 11:27:42;;;;;;;14.80;1.73;;;;;;;7.27;100.00;100355.28;10390033;28;20116;-75
2022/01/31 11:32:44;;;;;;;9.75;1.70;;;;;;;7.63;100.00;100380.59;10400186;28;20029;-75
2022/01/31 11:37:44;;;;;;;18.38;3.70;;;;;;;7.41;100.00;100373.06;10390059;28;20041;-74
2022/01/31 11:42:46;;;;;;;18.75;2.78;;;;;;;7.27;100.00;100388.13;10390658;28;20026;-74
2022/01/31 11:47:52;;;;;;;11.13;2.22;;;;;;;7.22;100.00;100399.00;10389856;28;20029;-75
2022/01/31 11:52:58;;;;;;;13.02;2.17;;;;;;;7.32;100.00;100390.13;10390430;28;20038;-74
2022/01/31 11:57:58;;;;;;;15.25;2.50;;;;;;;7.24;100.00;100437.94;10359318;28;20048;-74
2022/01/31 12:03:04;;;;;;;18.08;4.50;;;;;;;6.90;100.00;100435.03;10427247;28;20049;-76
2022/01/31 12:08:07;;;;;;;;;;;;;;;7.01;100.00;100453.34;10372976;28;20058;-75
2022/01/31 12:13:40;;;;;;;19.98;2.80;;;;;;;7.64;100.00;100453.47;10405887;28;19924;-74
2022/01/31 12:19:15;;;;;;;17.02;4.60;;;;;;;8.24;100.00;100463.03;10389812;28;20110;-76
2022/01/31 12:24:10;;;;;;;15.77;1.88;;;;;;;8.36;100.00;100454.75;10387161;28;20037;-77
2022/01/31 12:29:12;;;;;;;18.45;3.75;;;;;;;8.01;100.00;100469.50;10389152;28;20042;-73
2022/01/31 12:34:22;;;;;;;12.85;2.55;;;;;;;7.67;100.00;100491.38;10387798;28;20044;-75
2022/01/31 12:39:30;;;;;;;24.00;3.25;;;;;;;7.59;100.00;100516.41;10449482;28;20401;-74
2022/01/31 12:44:34;;;;;;;15.70;4.43;;;;;;;7.46;100.00;100507.41;10453785;28;20041;-74
2022/01/31 12:49:35;;;;;;;23.55;2.92;;;;;;;7.37;100.00;100513.50;10454800;28;20029;-74
2022/01/31 12:54:36;;;;;;;16.23;2.97;;;;;;;7.51;100.00;100498.44;10435267;28;20041;-75
2022/01/31 12:59:40;;;;;;;15.02;2.38;;;;;;;7.89;100.00;100521.63;10445582;28;20047;-75
2022/01/31 13:04:48;;;;;;;19.38;2.88;;;;;;;7.98;100.00;100503.72;10430727;28;20461;-75
2022/01/31 13:09:49;;;;;;;14.25;2.45;;;;;;;7.82;100.00;100488.91;10436289;28;20052;-75
2022/01/31 13:14:50;;;;;;;15.98;3.95;;;;;;;7.72;100.00;100532.56;10454877;28;20029;-75
2022/01/31 13:19:53;;;;;;;14.43;3.60;;;;;;;7.57;100.00;100527.59;10452793;28;20044;-75
2022/01/31 13:24:55;;;;;;;16.13;2.67;;;;;;;7.35;100.00;100532.91;10453127;28;20036;-74
2022/01/31 13:29:56;;;;;;;17.25;4.03;;;;;;;7.28;100.00;100529.47;10452565;28;20072;-76
2022/01/31 13:34:58;;;;;;;20.65;3.15;;;;;;;7.36;100.00;100550.16;10398685;28;20037;-74
2022/01/31 13:40:12;;;;;;;23.52;3.38;;;;;;;7.28;100.00;100540.41;10437812;28;20070;-74
2022/01/31 13:45:18;;;;;;;20.08;3.63;;;;;;;7.45;100.00;100563.25;10437400;28;20022;-75
2022/01/31 13:50:27;;;;;;;32.03;4.15;;;;;;;7.39;100.00;100566.94;10445279;28;20068;-77
2022/01/31 13:55:29;;;;;;;19.35;3.78;;;;;;;7.02;100.00;100567.22;10460681;28;20053;-75
2022/01/31 14:00:33;;;;;;;19.30;2.53;;;;;;;6.68;100.00;100596.22;10442884;28;20029;-76
2022/01/31 14:05:36;;;;;;;11.75;2.20;;;;;;;6.42;100.00;100622.09;10426601;28;20108;-75
2022/01/31 14:10:37;;;;;;;10.15;1.50;;;;;;;6.30;100.00;100645.81;10459398;28;20045;-75
2022/01/31 14:15:44;;;;;;;12.52;1.10;;;;;;;5.74;100.00;100587.66;10456979;28;20025;-75
2022/01/31 14:20:45;;;;;;;12.63;1.73;;;;;;;6.10;100.00;100674.25;10443823;28;20080;-76
2022/01/31 14:25:49;;;;;;;10.63;1.20;;;;;;;6.14;100.00;100691.00;10411085;28;20033;-76
2022/01/31 14:30:51;;;;;;;7.90;1.30;;;;;;;6.02;100.00;100710.94;10450697;28;20017;-75
2022/01/31 14:36:03;;;;;;;7.53;2.55;;;;;;;5.91;100.00;100738.97;10473936;28;20484;-75
2022/01/31 14:41:11;;;;;;;21.17;6.95;;;;;;;5.60;100.00;100750.84;10474257;28;20037;-75
2022/01/31 14:51:33;;;;;;;22.45;9.75;;;;;;;5.23;100.00;100794.44;10461051;28;20033;-76
2022/01/31 14:56:34;;;;;;;21.92;8.70;;;;;;;4.98;100.00;100803.41;10440393;28;20034;-74
2022/01/31 15:01:35;;;;;;;17.08;7.90;;;;;;;4.87;100.00;100806.81;10435014;28;20041;-75
2022/01/31 15:06:36;;;;;;;14.13;8.32;;;;;;;4.76;100.00;100826.59;10432547;28;20547;-76
2022/01/31 15:11:36;;;;;;;12.23;7.40;;;;;;;4.51;100.00;100857.31;10434359;28;20046;-75
2022/01/31 15:16:38;;;;;;;14.70;8.23;;;;;;;4.42;100.00;100891.31;10432815;28;20389;-75
2022/01/31 15:21:39;;;;;;;15.48;6.90;;;;;;;4.28;100.00;100897.84;10425934;28;20025;-74
2022/01/31 15:26:39;;;;;;;14.98;7.50;;;;;;;4.21;100.00;100911.47;10430835;28;20033;-74
2022/01/31 15:31:40;;;;;;;10.27;5.68;;;;;;;4.11;100.00;100936.41;10415965;28;20026;-74
2022/01/31 15:36:41;;;;;;;14.18;6.28;;;;;;;3.99;100.00;100929.91;10429890;28;20037;-71
2022/01/31 15:41:43;;;;;;;10.65;5.80;;;;;;;4.03;100.00;100974.78;10422600;28;20073;-74
2022/01/31 15:46:44;;;;;;;17.40;6.57;;;;;;;3.97;100.00;100983.78;10401395;28;20833;-75
2022/01/31 15:51:44;;;;;;;13.10;7.65;;;;;;;3.81;100.00;100971.41;10410189;28;20025;-74
2022/01/31 15:56:45;;;;;;;16.38;7.72;;;;;;;3.79;100.00;101022.53;10429541;28;20021;-72
2022/01/31 16:01:45;;;;;;;9.05;6.90;;;;;;;3.76;100.00;101044.69;10413156;28;20030;-73
2022/01/31 16:12:51;;;;;;;16.27;9.05;;;;;;;2.88;100.00;100981.97;10733739;23;20504;-88
2022/01/31 16:17:52;;;;;;;12.68;8.45;;;;;;;3.07;100.00;101034.81;10471489;23;20058;-88
2022/01/31 16:28:17;;;;;;;17.52;8.23;;;;;;;3.20;100.00;101100.16;5905667;23;20065;-89
2022/01/31 16:38:55;;;;;;;19.52;11.02;;;;;;;2.99;100.00;101072.00;8445796;23;20064;-88
2022/01/31 16:43:56;;;;;;;19.50;11.48;;;;;;;3.63;100.00;101176.19;10008176;24;20057;-70
2022/01/31 16:48:56;;;;;;;16.42;10.80;;;;;;;3.57;100.00;101177.84;10035467;29;20365;-69
2022/01/31 16:53:57;;;;;;;22.65;11.18;;;;;;;3.51;100.00;101188.69;10035576;29;20039;-70
2022/01/31 16:58:57;;;;;;;23.10;13.15;;;;;;;3.61;100.00;101216.41;10032017;29;20077;-69
2022/01/31 17:03:58;;;;;;;18.02;11.27;;;;;;;3.65;100.00;101223.13;10046341;29;20042;-70
2022/01/31 17:08:59;;;;;;;24.50;12.73;;;;;;;3.64;100.00;101243.25;10044708;29;20107;-69
2022/01/31 17:13:59;;;;;;;19.90;12.07;;;;;;;3.58;100.00;101239.44;10049258;29;20038;-70
2022/01/31 17:19:04;;;;;;;21.17;10.25;;;;;;;3.44;100.00;101254.81;10048181;29;20045;-70
2022/01/31 17:24:07;;;;;;;18.27;9.23;;;;;;;3.30;100.00;101279.41;10049605;29;20042;-69
2022/01/31 17:29:10;;;;;;;15.85;9.07;;;;;;;3.21;100.00;101300.47;10049382;29;20030;-69
2022/01/31 17:34:10;;;;;;;15.93;8.85;;;;;;;3.16;100.00;101300.19;10049697;29;20039;-70
2022/01/31 17:39:11;;;;;;;21.83;8.23;;;;;;;3.09;100.00;101283.00;10049145;29;20041;-70
2022/01/31 17:44:20;;;;;;;19.73;7.32;;;;;;;3.21;100.00;101304.03;10029730;29;20073;-70
2022/01/31 17:49:20;;;;;;;15.73;6.95;;;;;;;3.25;100.00;101328.16;10039079;29;20065;-70
2022/01/31 17:54:21;;;;;;;12.32;5.55;;;;;;;3.15;100.00;101310.25;10032487;29;20038;-69
2022/01/31 17:59:23;;;;;;;18.58;6.28;;;;;;;3.22;100.00;101348.41;10032185;29;20417;-69
2022/01/31 18:04:24;;;;;;;14.25;7.38;;;;;;;3.25;100.00;101368.97;10031118;29;20510;-69
2022/01/31 18:09:25;;;;;;;16.63;7.75;;;;;;;3.27;100.00;101385.94;10032541;29;20026;-70
2022/01/31 18:14:25;;;;;;;20.35;9.10;;;;;;;3.20;100.00;101347.75;10041584;29;20086;-69
2022/01/31 18:19:26;;;;;;;18.10;8.57;;;;;;;3.26;100.00;101381.53;10024819;29;20049;-69
2022/01/31 18:24:26;;;;;;;23.23;8.85;;;;;;;3.27;100.00;101400.38;10040980;29;20042;-69
2022/01/31 18:29:28;;;;;;;15.80;8.10;;;;;;;3.33;100.00;101407.78;10026849;29;20030;-69
2022/01/31 18:34:29;;;;;;;19.95;9.07;;;;;;;3.38;100.00;101391.69;10026117;29;20064;-70
2022/01/31 18:39:29;;;;;;;24.98;9.80;;;;;;;3.33;100.00;101396.88;10027061;29;20079;-68
2022/01/31 18:44:35;;;;;;;22.40;9.88;;;;;;;3.33;100.00;101418.66;10006544;29;20053;-70
2022/01/31 18:49:43;;;;;;;24.27;10.20;;;;;;;3.27;100.00;101427.59;10028690;29;20042;-69
2022/01/31 18:54:44;;;;;;;19.05;8.65;;;;;;;3.29;100.00;101444.56;9998872;29;20030;-69
2022/01/31 18:59:44;;;;;;;17.90;9.27;;;;;;;3.33;100.00;101473.09;10024755;29;20041;-70
2022/01/31 19:04:45;;;;;;;15.38;7.78;;;;;;;3.34;100.00;101485.66;10040708;29;20026;-70
2022/01/31 19:09:46;;;;;;;17.77;6.10;;;;;;;3.37;100.00;101477.13;10039241;29;20034;-70
2022/01/31 19:19:50;;;;;;;5.28;3.38;;;;;;;3.37;100.00;101479.84;10038458;29;20045;-70
2022/01/31 19:24:50;;;;;;;9.93;2.75;;;;;;;3.38;100.00;101484.22;10037516;29;20030;-71
2022/01/31 19:29:51;;;;;;;7.20;1.50;;;;;;;3.35;100.00;101509.13;10038514;29;20042;-70
2022/01/31 19:34:51;;;;;;;8.15;1.73;;;;;;;3.26;100.00;101523.84;10037351;29;20063;-70
2022/01/31 19:44:55;;;;;;;5.35;0.80;;;;;;;3.13;100.00;101532.69;10035862;29;20069;-70
2022/01/31 19:49:55;;;;;;;3.45;0.75;;;;;;;3.12;100.00;101530.16;10037561;29;20074;-71
2022/01/31 19:54:56;;;;;;;8.63;1.65;;;;;;;3.15;100.00;101532.53;10020521;29;20387;-70
2022/01/31 19:59:59;;;;;;;3.63;0.80;;;;;;;3.18;100.00;101553.91;10036058;29;20046;-71
2022/01/31 20:04:59;;;;;;;4.45;1.20;;;;;;;3.19;100.00;101561.88;10034877;29;20026;-71
2022/01/31 20:10:04;;;;;;;11.80;1.38;;;;;;;3.07;100.00;101546.22;10034577;29;20128;-71
2022/01/31 20:15:05;;;;;;;7.40;1.33;;;;;;;3.17;100.00;101563.09;10036274;29;20034;-71
2022/01/31 20:20:06;;;;;;;19.33;3.22;;;;;;;3.17;100.00;101576.72;10035637;29;20046;-71
2022/01/31 20:25:06;;;;;;;10.57;2.10;;;;;;;3.21;100.00;101611.50;10035859;29;20033;-71
2022/01/31 20:30:07;;;;;;;15.20;1.95;;;;;;;3.25;100.00;101649.25;10036113;29;20026;-70
2022/01/31 20:35:08;;;;;;;15.40;3.60;;;;;;;3.14;100.00;101628.78;10033905;29;20066;-69
2022/01/31 20:40:29;;;;;;;24.13;4.75;;;;;;;2.97;100.00;101593.56;10035227;29;20038;-70
2022/01/31 20:45:30;;;;;;;37.55;7.30;;;;;;;3.08;100.00;101613.19;10034253;29;20064;-70
2022/01/31 20:50:31;;;;;;;31.02;5.68;;;;;;;3.10;100.00;101611.13;10035801;29;20091;-70
2022/01/31 20:55:31;;;;;;;21.80;3.88;;;;;;;3.14;100.00;101607.00;10034506;29;20069;-70
2022/01/31 21:00:38;;;;;;;26.95;7.28;;;;;;;3.17;100.00;101610.19;10033796;29;20034;-70
2022/01/31 21:05:39;;;;;;;36.80;7.18;;;;;;;3.22;100.00;101609.63;10033535;29;20026;-70
2022/01/31 21:10:40;;;;;;;56.53;8.70;;;;;;;3.29;100.00;101635.06;10033575;29;20038;-70
2022/01/31 21:15:40;;;;;;;32.75;7.35;;;;;;;3.28;100.00;101633.38;10033050;29;20058;-70
2022/01/31 21:20:41;;;;;;;41.47;6.40;;;;;;;3.27;100.00;101634.41;10032638;29;20042;-70
2022/01/31 21:25:42;;;;;;;34.95;5.88;;;;;;;3.38;100.00;101652.16;10033901;29;20464;-70
2022/01/31 21:30:43;;;;;;;31.48;5.97;;;;;;;3.41;100.00;101625.41;10032084;29;20046;-71
2022/01/31 21:35:43;;;;;;;25.25;4.85;;;;;;;3.48;100.00;101624.66;10047073;29;20086;-70
2022/01/31 21:40:44;;;;;;;31.58;5.28;;;;;;;3.51;100.00;101630.53;10031668;29;20439;-70
2022/01/31 21:45:44;;;;;;;27.77;6.78;;;;;;;3.49;100.00;101659.00;10016852;29;20499;-70
2022/01/31 21:50:45;;;;;;;28.27;4.95;;;;;;;3.49;100.00;101664.44;10037825;29;20562;-70
2022/01/31 21:55:45;;;;;;;25.23;6.90;;;;;;;3.47;100.00;101661.91;10039066;29;20030;-70
2022/01/31 22:00:46;;;;;;;30.70;4.50;;;;;;;3.41;100.00;101663.53;10038456;29;20034;-70
2022/01/31 22:05:47;;;;;;;20.58;4.30;;;;;;;3.39;100.00;101649.25;10038326;29;20038;-70
2022/01/31 22:11:10;;;;;;;18.63;3.92;;;;;;;3.37;100.00;101664.06;10038374;29;20426;-69
2022/01/31 22:16:11;;;;;;;16.35;4.70;;;;;;;3.25;100.00;101636.47;10039837;29;20050;-69
2022/01/31 22:21:14;;;;;;;17.00;3.40;;;;;;;3.34;100.00;101627.19;10039829;29;20038;-69
2022/01/31 22:26:14;;;;;;;25.45;5.68;;;;;;;3.18;100.00;101617.34;10037638;29;20026;-70
2022/01/31 22:31:15;;;;;;;26.33;4.85;;;;;;;2.96;100.00;101600.06;10038275;29;20482;-69
2022/01/31 22:36:15;;;;;;;16.55;3.75;;;;;;;2.86;100.00;101631.28;10037678;29;20038;-70
2022/01/31 22:41:16;;;;;;;20.95;4.63;;;;;;;2.77;100.00;101638.66;10038831;29;20495;-69
2022/01/31 22:46:16;;;;;;;18.23;2.67;;;;;;;2.69;100.00;101642.31;10039630;29;20753;-70
2022/01/31 22:51:17;;;;;;;15.40;3.10;;;;;;;2.63;100.00;101654.75;10039644;29;20050;-69
2022/01/31 22:56:18;;;;;;;21.52;3.15;;;;;;;2.56;100.00;101674.69;10039346;29;20038;-70
2022/01/31 23:01:18;;;;;;;18.80;3.38;;;;;;;2.46;100.00;101674.94;10037363;29;20046;-70
2022/01/31 23:06:19;;;;;;;16.25;4.20;;;;;;;2.34;100.00;101679.13;10038824;29;20404;-70
2022/01/31 23:11:21;;;;;;;18.13;3.17;;;;;;;2.28;100.00;101701.56;10039572;29;20521;-69
2022/01/31 23:16:39;;;;;;;19.63;3.45;;;;;;;2.20;100.00;101689.72;10037637;29;20045;-70
2022/01/31 23:21:49;;;;;;;10.95;2.17;;;;;;;2.09;100.00;101684.69;10037590;29;20070;-71
2022/01/31 23:53:32;;;;;;;15.60;2.20;;;;;;;2.10;100.00;101680.94;10036955;29;20148;-69
